sensor_id;sensor_type;location;lat;lon;timestamp;temperature;humidity
24744;DHT22;12844;52.110;5.548;2023-03-31T00:00:32;19.80;54.00
24744;DHT22;12844;52.110;5.548;2023-03-31T00:02:58;19.80;54.00
24744;DHT22;12844;52.110;5.548;2023-03-31T00:05:27;19.80;54.10
24744;DHT22;12844;52.110;5.548;2023-03-31T00:07:56;19.80;54.10
24744;DHT22;12844;52.110;5.548;2023-03-31T00:10:30;19.80;54.10
24744;DHT22;12844;52.110;5.548;2023-03-31T00:12:58;19.80;54.10
24744;DHT22;12844;52.110;5.548;2023-03-31T00:15:24;19.80;54.10
24744;DHT22;12844;52.110;5.548;2023-03-31T00:17:49;19.80;54.10
24744;DHT22;12844;52.110;5.548;2023-03-31T00:20:15;19.80;54.10
24744;DHT22;12844;52.110;5.548;2023-03-31T00:22:41;19.80;54.10
24744;DHT22;12844;52.110;5.548;2023-03-31T00:25:11;19.80;54.10
24744;DHT22;12844;52.110;5.548;2023-03-31T00:27:39;19.80;54.10
24744;DHT22;12844;52.110;5.548;2023-03-31T00:30:06;19.80;54.10
24744;DHT22;12844;52.110;5.548;2023-03-31T00:32:32;19.80;54.20
24744;DHT22;12844;52.110;5.548;2023-03-31T00:34:58;19.80;54.10
24744;DHT22;12844;52.110;5.548;2023-03-31T00:37:27;19.80;54.10
24744;DHT22;12844;52.110;5.548;2023-03-31T00:39:52;19.80;54.10
24744;DHT22;12844;52.110;5.548;2023-03-31T00:42:18;19.80;54.10
24744;DHT22;12844;52.110;5.548;2023-03-31T00:50:24;19.70;54.10
24744;DHT22;12844;52.110;5.548;2023-03-31T00:52:55;19.70;54.10
24744;DHT22;12844;52.110;5.548;2023-03-31T00:55:26;19.70;54.10
24744;DHT22;12844;52.110;5.548;2023-03-31T00:57:53;19.70;54.00
24744;DHT22;12844;52.110;5.548;2023-03-31T01:00:19;19.70;54.00
24744;DHT22;12844;52.110;5.548;2023-03-31T01:02:54;19.70;54.00
24744;DHT22;12844;52.110;5.548;2023-03-31T01:05:33;19.70;54.00
24744;DHT22;12844;52.110;5.548;2023-03-31T01:08:01;19.70;54.00
24744;DHT22;12844;52.110;5.548;2023-03-31T01:10:32;19.70;54.00
24744;DHT22;12844;52.110;5.548;2023-03-31T01:13:03;19.70;54.00
24744;DHT22;12844;52.110;5.548;2023-03-31T01:15:29;19.70;54.00
24744;DHT22;12844;52.110;5.548;2023-03-31T01:17:54;19.70;54.00
24744;DHT22;12844;52.110;5.548;2023-03-31T01:23:04;19.70;53.80
24744;DHT22;12844;52.110;5.548;2023-03-31T01:34:57;19.60;54.00
24744;DHT22;12844;52.110;5.548;2023-03-31T01:37:39;19.60;54.00
24744;DHT22;12844;52.110;5.548;2023-03-31T01:42:58;19.60;54.10
24744;DHT22;12844;52.110;5.548;2023-03-31T01:48:33;19.60;54.10
24744;DHT22;12844;52.110;5.548;2023-03-31T01:51:05;19.60;54.10
24744;DHT22;12844;52.110;5.548;2023-03-31T01:56:07;19.60;54.10
24744;DHT22;12844;52.110;5.548;2023-03-31T01:58:37;19.60;54.10
24744;DHT22;12844;52.110;5.548;2023-03-31T02:01:13;19.60;54.20
24744;DHT22;12844;52.110;5.548;2023-03-31T02:03:45;19.60;54.20
24744;DHT22;12844;52.110;5.548;2023-03-31T02:06:18;19.60;54.20
24744;DHT22;12844;52.110;5.548;2023-03-31T02:08:48;19.60;54.20
24744;DHT22;12844;52.110;5.548;2023-03-31T02:11:18;19.60;54.00
24744;DHT22;12844;52.110;5.548;2023-03-31T02:13:46;19.60;54.00
24744;DHT22;12844;52.110;5.548;2023-03-31T02:16:16;19.60;54.00
24744;DHT22;12844;52.110;5.548;2023-03-31T02:18:46;19.60;53.90
24744;DHT22;12844;52.110;5.548;2023-03-31T02:21:15;19.60;53.80
24744;DHT22;12844;52.110;5.548;2023-03-31T02:23:41;19.60;53.70
24744;DHT22;12844;52.110;5.548;2023-03-31T02:26:24;19.60;53.60
24744;DHT22;12844;52.110;5.548;2023-03-31T02:28:53;19.60;53.50
24744;DHT22;12844;52.110;5.548;2023-03-31T02:33:47;19.50;53.50
24744;DHT22;12844;52.110;5.548;2023-03-31T02:36:13;19.50;53.50
24744;DHT22;12844;52.110;5.548;2023-03-31T02:38:50;19.50;53.40
24744;DHT22;12844;52.110;5.548;2023-03-31T02:41:16;19.50;53.40
24744;DHT22;12844;52.110;5.548;2023-03-31T02:43:42;19.50;53.40
24744;DHT22;12844;52.110;5.548;2023-03-31T02:46:07;19.50;53.40
24744;DHT22;12844;52.110;5.548;2023-03-31T02:48:37;19.50;53.40
24744;DHT22;12844;52.110;5.548;2023-03-31T02:51:08;19.50;53.40
24744;DHT22;12844;52.110;5.548;2023-03-31T02:59:29;19.50;53.30
24744;DHT22;12844;52.110;5.548;2023-03-31T03:02:09;19.40;53.20
24744;DHT22;12844;52.110;5.548;2023-03-31T03:04:41;19.40;53.80
24744;DHT22;12844;52.110;5.548;2023-03-31T03:07:26;19.40;53.20
24744;DHT22;12844;52.110;5.548;2023-03-31T03:12:41;19.40;53.20
24744;DHT22;12844;52.110;5.548;2023-03-31T03:15:17;19.40;53.20
24744;DHT22;12844;52.110;5.548;2023-03-31T03:17:47;19.40;53.20
24744;DHT22;12844;52.110;5.548;2023-03-31T03:20:13;19.40;53.20
24744;DHT22;12844;52.110;5.548;2023-03-31T03:22:40;19.40;53.20
24744;DHT22;12844;52.110;5.548;2023-03-31T03:25:08;19.40;53.20
24744;DHT22;12844;52.110;5.548;2023-03-31T03:27:35;19.40;53.20
24744;DHT22;12844;52.110;5.548;2023-03-31T03:30:01;19.40;53.20
24744;DHT22;12844;52.110;5.548;2023-03-31T03:32:28;19.40;53.20
24744;DHT22;12844;52.110;5.548;2023-03-31T03:34:53;19.40;53.20
24744;DHT22;12844;52.110;5.548;2023-03-31T03:37:19;19.40;53.20
24744;DHT22;12844;52.110;5.548;2023-03-31T03:39:44;19.40;53.20
24744;DHT22;12844;52.110;5.548;2023-03-31T03:42:10;19.40;53.20
24744;DHT22;12844;52.110;5.548;2023-03-31T03:44:36;19.30;53.20
24744;DHT22;12844;52.110;5.548;2023-03-31T03:47:01;19.40;53.20
24744;DHT22;12844;52.110;5.548;2023-03-31T03:49:27;19.30;53.20
24744;DHT22;12844;52.110;5.548;2023-03-31T03:51:52;19.30;53.20
24744;DHT22;12844;52.110;5.548;2023-03-31T03:54:18;19.30;53.20
24744;DHT22;12844;52.110;5.548;2023-03-31T03:56:43;19.30;53.20
24744;DHT22;12844;52.110;5.548;2023-03-31T03:59:10;19.30;53.20
24744;DHT22;12844;52.110;5.548;2023-03-31T04:01:36;19.30;53.20
24744;DHT22;12844;52.110;5.548;2023-03-31T04:04:02;19.30;53.20
24744;DHT22;12844;52.110;5.548;2023-03-31T04:06:27;19.30;53.10
24744;DHT22;12844;52.110;5.548;2023-03-31T04:08:53;19.30;53.10
24744;DHT22;12844;52.110;5.548;2023-03-31T04:11:18;19.30;53.10
24744;DHT22;12844;52.110;5.548;2023-03-31T04:13:45;19.30;53.10
24744;DHT22;12844;52.110;5.548;2023-03-31T04:16:11;19.30;53.10
24744;DHT22;12844;52.110;5.548;2023-03-31T04:18:37;19.30;53.10
24744;DHT22;12844;52.110;5.548;2023-03-31T04:21:10;19.30;53.00
24744;DHT22;12844;52.110;5.548;2023-03-31T04:23:37;19.30;53.10
24744;DHT22;12844;52.110;5.548;2023-03-31T04:26:08;19.30;53.10
24744;DHT22;12844;52.110;5.548;2023-03-31T04:28:35;19.30;53.20
24744;DHT22;12844;52.110;5.548;2023-03-31T04:31:02;19.30;53.20
24744;DHT22;12844;52.110;5.548;2023-03-31T04:33:27;19.30;53.10
24744;DHT22;12844;52.110;5.548;2023-03-31T04:35:53;19.30;53.20
24744;DHT22;12844;52.110;5.548;2023-03-31T04:38:21;19.30;53.20
24744;DHT22;12844;52.110;5.548;2023-03-31T04:40:49;19.20;53.20
24744;DHT22;12844;52.110;5.548;2023-03-31T04:43:16;19.20;53.20
24744;DHT22;12844;52.110;5.548;2023-03-31T04:45:42;19.20;53.20
24744;DHT22;12844;52.110;5.548;2023-03-31T04:48:08;19.20;53.20
24744;DHT22;12844;52.110;5.548;2023-03-31T04:50:34;19.30;53.20
24744;DHT22;12844;52.110;5.548;2023-03-31T04:53:01;19.20;53.10
24744;DHT22;12844;52.110;5.548;2023-03-31T04:55:26;19.20;53.10
24744;DHT22;12844;52.110;5.548;2023-03-31T04:57:52;19.30;53.10
24744;DHT22;12844;52.110;5.548;2023-03-31T05:00:18;19.20;53.10
24744;DHT22;12844;52.110;5.548;2023-03-31T05:02:44;19.20;53.10
24744;DHT22;12844;52.110;5.548;2023-03-31T05:05:10;19.20;53.10
24744;DHT22;12844;52.110;5.548;2023-03-31T05:07:35;19.20;53.10
24744;DHT22;12844;52.110;5.548;2023-03-31T05:10:01;19.20;53.10
24744;DHT22;12844;52.110;5.548;2023-03-31T05:12:27;19.20;53.00
24744;DHT22;12844;52.110;5.548;2023-03-31T05:14:52;19.20;53.00
24744;DHT22;12844;52.110;5.548;2023-03-31T05:17:18;19.20;53.60
24744;DHT22;12844;52.110;5.548;2023-03-31T05:19:43;19.20;53.00
24744;DHT22;12844;52.110;5.548;2023-03-31T05:22:09;19.20;53.00
24744;DHT22;12844;52.110;5.548;2023-03-31T05:24:35;19.20;53.00
24744;DHT22;12844;52.110;5.548;2023-03-31T05:27:00;19.20;52.90
24744;DHT22;12844;52.110;5.548;2023-03-31T05:29:26;19.20;52.90
24744;DHT22;12844;52.110;5.548;2023-03-31T05:31:52;19.20;52.90
24744;DHT22;12844;52.110;5.548;2023-03-31T05:34:18;19.20;52.90
24744;DHT22;12844;52.110;5.548;2023-03-31T05:36:44;19.20;52.90
24744;DHT22;12844;52.110;5.548;2023-03-31T05:39:12;19.20;52.90
24744;DHT22;12844;52.110;5.548;2023-03-31T05:41:38;19.20;53.00
24744;DHT22;12844;52.110;5.548;2023-03-31T05:44:03;19.10;52.90
24744;DHT22;12844;52.110;5.548;2023-03-31T05:46:29;19.20;53.00
24744;DHT22;12844;52.110;5.548;2023-03-31T05:48:55;19.20;53.00
24744;DHT22;12844;52.110;5.548;2023-03-31T05:51:21;19.10;52.90
24744;DHT22;12844;52.110;5.548;2023-03-31T05:53:47;19.10;53.00
24744;DHT22;12844;52.110;5.548;2023-03-31T05:56:12;19.10;53.00
24744;DHT22;12844;52.110;5.548;2023-03-31T05:58:38;19.10;53.00
24744;DHT22;12844;52.110;5.548;2023-03-31T06:01:08;19.20;53.00
24744;DHT22;12844;52.110;5.548;2023-03-31T06:03:35;19.10;53.00
24744;DHT22;12844;52.110;5.548;2023-03-31T06:06:01;19.10;52.90
24744;DHT22;12844;52.110;5.548;2023-03-31T06:08:30;19.10;53.60
24744;DHT22;12844;52.110;5.548;2023-03-31T06:10:56;19.10;52.90
24744;DHT22;12844;52.110;5.548;2023-03-31T06:13:21;19.10;52.90
24744;DHT22;12844;52.110;5.548;2023-03-31T06:15:55;19.10;52.90
24744;DHT22;12844;52.110;5.548;2023-03-31T06:18:21;19.10;52.80
24744;DHT22;12844;52.110;5.548;2023-03-31T06:20:46;19.10;52.90
24744;DHT22;12844;52.110;5.548;2023-03-31T06:23:12;19.10;52.90
24744;DHT22;12844;52.110;5.548;2023-03-31T06:25:37;19.10;52.90
24744;DHT22;12844;52.110;5.548;2023-03-31T06:28:03;19.10;52.90
24744;DHT22;12844;52.110;5.548;2023-03-31T06:30:30;19.10;52.90
24744;DHT22;12844;52.110;5.548;2023-03-31T06:32:56;19.10;52.90
24744;DHT22;12844;52.110;5.548;2023-03-31T06:35:22;19.10;52.90
24744;DHT22;12844;52.110;5.548;2023-03-31T06:37:47;19.10;52.80
24744;DHT22;12844;52.110;5.548;2023-03-31T06:40:13;19.10;52.80
24744;DHT22;12844;52.110;5.548;2023-03-31T06:42:38;19.20;52.90
24744;DHT22;12844;52.110;5.548;2023-03-31T06:45:04;19.30;53.20
24744;DHT22;12844;52.110;5.548;2023-03-31T06:47:30;19.30;53.30
24744;DHT22;12844;52.110;5.548;2023-03-31T06:49:55;19.40;53.40
24744;DHT22;12844;52.110;5.548;2023-03-31T06:52:21;19.70;54.00
24744;DHT22;12844;52.110;5.548;2023-03-31T06:54:46;19.90;53.30
24744;DHT22;12844;52.110;5.548;2023-03-31T06:57:12;20.10;53.30
24744;DHT22;12844;52.110;5.548;2023-03-31T06:59:37;20.30;53.30
24744;DHT22;12844;52.110;5.548;2023-03-31T07:02:03;20.40;53.30
24744;DHT22;12844;52.110;5.548;2023-03-31T07:04:28;20.40;53.40
24744;DHT22;12844;52.110;5.548;2023-03-31T07:06:54;20.50;53.50
24744;DHT22;12844;52.110;5.548;2023-03-31T07:09:20;20.50;53.40
24744;DHT22;12844;52.110;5.548;2023-03-31T07:11:47;20.60;53.40
24744;DHT22;12844;52.110;5.548;2023-03-31T07:14:13;20.60;53.40
24744;DHT22;12844;52.110;5.548;2023-03-31T07:16:38;20.60;53.40
24744;DHT22;12844;52.110;5.548;2023-03-31T07:19:06;20.80;53.30
24744;DHT22;12844;52.110;5.548;2023-03-31T07:21:32;20.80;53.30
24744;DHT22;12844;52.110;5.548;2023-03-31T07:23:58;20.80;53.20
24744;DHT22;12844;52.110;5.548;2023-03-31T07:26:24;20.90;53.30
24744;DHT22;12844;52.110;5.548;2023-03-31T07:28:50;21.00;53.10
24744;DHT22;12844;52.110;5.548;2023-03-31T07:31:16;21.00;53.10
24744;DHT22;12844;52.110;5.548;2023-03-31T07:33:41;21.00;52.90
24744;DHT22;12844;52.110;5.548;2023-03-31T07:46:29;21.10;52.90
24744;DHT22;12844;52.110;5.548;2023-03-31T07:48:55;21.10;52.80
24744;DHT22;12844;52.110;5.548;2023-03-31T07:51:24;21.10;52.80
24744;DHT22;12844;52.110;5.548;2023-03-31T07:53:50;21.00;52.80
24744;DHT22;12844;52.110;5.548;2023-03-31T07:56:18;21.00;52.90
24744;DHT22;12844;52.110;5.548;2023-03-31T07:58:44;21.00;52.90
24744;DHT22;12844;52.110;5.548;2023-03-31T08:01:16;21.00;52.90
24744;DHT22;12844;52.110;5.548;2023-03-31T08:03:43;21.00;52.90
24744;DHT22;12844;52.110;5.548;2023-03-31T08:06:08;21.00;52.90
24744;DHT22;12844;52.110;5.548;2023-03-31T08:08:34;21.00;52.90
24744;DHT22;12844;52.110;5.548;2023-03-31T08:11:02;20.90;52.90
24744;DHT22;12844;52.110;5.548;2023-03-31T08:13:28;20.90;52.90
24744;DHT22;12844;52.110;5.548;2023-03-31T08:15:54;21.00;52.90
24744;DHT22;12844;52.110;5.548;2023-03-31T08:18:19;20.90;52.90
24744;DHT22;12844;52.110;5.548;2023-03-31T08:20:45;20.90;53.00
24744;DHT22;12844;52.110;5.548;2023-03-31T08:23:14;20.90;53.00
24744;DHT22;12844;52.110;5.548;2023-03-31T08:25:40;20.80;53.00
24744;DHT22;12844;52.110;5.548;2023-03-31T08:28:06;20.80;53.10
24744;DHT22;12844;52.110;5.548;2023-03-31T08:30:36;20.80;53.00
24744;DHT22;12844;52.110;5.548;2023-03-31T08:33:01;20.80;53.00
24744;DHT22;12844;52.110;5.548;2023-03-31T08:35:27;20.80;53.10
24744;DHT22;12844;52.110;5.548;2023-03-31T08:37:52;20.80;53.10
24744;DHT22;12844;52.110;5.548;2023-03-31T08:40:21;20.80;53.10
24744;DHT22;12844;52.110;5.548;2023-03-31T08:42:50;20.80;53.10
24744;DHT22;12844;52.110;5.548;2023-03-31T08:45:36;20.80;53.00
24744;DHT22;12844;52.110;5.548;2023-03-31T08:48:06;20.80;53.10
24744;DHT22;12844;52.110;5.548;2023-03-31T08:50:39;20.80;53.10
24744;DHT22;12844;52.110;5.548;2023-03-31T08:53:18;20.80;53.10
24744;DHT22;12844;52.110;5.548;2023-03-31T08:55:50;20.80;53.20
24744;DHT22;12844;52.110;5.548;2023-03-31T08:58:31;20.80;53.30
24744;DHT22;12844;52.110;5.548;2023-03-31T09:01:25;20.80;53.30
24744;DHT22;12844;52.110;5.548;2023-03-31T09:04:06;20.80;53.30
24744;DHT22;12844;52.110;5.548;2023-03-31T09:06:37;20.70;53.30
24744;DHT22;12844;52.110;5.548;2023-03-31T09:09:09;20.70;53.40
24744;DHT22;12844;52.110;5.548;2023-03-31T09:11:52;20.60;53.50
24744;DHT22;12844;52.110;5.548;2023-03-31T09:14:35;20.70;53.40
24744;DHT22;12844;52.110;5.548;2023-03-31T09:17:12;20.70;53.50
24744;DHT22;12844;52.110;5.548;2023-03-31T09:19:52;20.70;53.50
24744;DHT22;12844;52.110;5.548;2023-03-31T09:22:25;20.70;53.40
24744;DHT22;12844;52.110;5.548;2023-03-31T09:25:04;20.70;53.40
24744;DHT22;12844;52.110;5.548;2023-03-31T09:27:32;20.70;53.40
24744;DHT22;12844;52.110;5.548;2023-03-31T09:30:15;20.70;53.40
24744;DHT22;12844;52.110;5.548;2023-03-31T09:32:42;20.70;53.30
24744;DHT22;12844;52.110;5.548;2023-03-31T09:35:24;20.70;53.30
24744;DHT22;12844;52.110;5.548;2023-03-31T09:37:51;20.70;53.30
24744;DHT22;12844;52.110;5.548;2023-03-31T09:40:20;20.70;53.30
24744;DHT22;12844;52.110;5.548;2023-03-31T09:43:17;20.70;53.30
24744;DHT22;12844;52.110;5.548;2023-03-31T09:45:39;20.70;53.30
24744;DHT22;12844;52.110;5.548;2023-03-31T09:48:11;20.70;53.30
24744;DHT22;12844;52.110;5.548;2023-03-31T09:50:44;20.70;53.30
24744;DHT22;12844;52.110;5.548;2023-03-31T09:53:28;20.70;53.30
24744;DHT22;12844;52.110;5.548;2023-03-31T09:56:01;20.70;53.20
24744;DHT22;12844;52.110;5.548;2023-03-31T09:58:26;20.70;53.20
24744;DHT22;12844;52.110;5.548;2023-03-31T10:01:13;20.60;53.20
24744;DHT22;12844;52.110;5.548;2023-03-31T10:03:53;20.60;53.20
24744;DHT22;12844;52.110;5.548;2023-03-31T10:06:20;20.60;53.20
24744;DHT22;12844;52.110;5.548;2023-03-31T10:11:16;20.60;53.30
24744;DHT22;12844;52.110;5.548;2023-03-31T10:14:01;20.60;53.30
24744;DHT22;12844;52.110;5.548;2023-03-31T10:16:32;20.60;53.40
24744;DHT22;12844;52.110;5.548;2023-03-31T10:19:21;20.60;54.00
24744;DHT22;12844;52.110;5.548;2023-03-31T10:21:53;20.60;53.40
24744;DHT22;12844;52.110;5.548;2023-03-31T10:24:19;20.60;53.40
24744;DHT22;12844;52.110;5.548;2023-03-31T10:26:51;20.60;53.40
24744;DHT22;12844;52.110;5.548;2023-03-31T10:29:39;20.60;53.30
24744;DHT22;12844;52.110;5.548;2023-03-31T10:32:32;20.60;53.30
24744;DHT22;12844;52.110;5.548;2023-03-31T10:34:58;20.70;53.30
24744;DHT22;12844;52.110;5.548;2023-03-31T10:37:28;20.70;53.20
24744;DHT22;12844;52.110;5.548;2023-03-31T10:40:02;20.70;53.20
24744;DHT22;12844;52.110;5.548;2023-03-31T10:42:30;20.80;53.20
24744;DHT22;12844;52.110;5.548;2023-03-31T10:45:24;20.80;53.10
24744;DHT22;12844;52.110;5.548;2023-03-31T10:47:53;20.80;53.00
24744;DHT22;12844;52.110;5.548;2023-03-31T10:50:29;20.80;53.00
24744;DHT22;12844;52.110;5.548;2023-03-31T10:53:04;20.80;53.00
24744;DHT22;12844;52.110;5.548;2023-03-31T10:58:36;20.80;52.90
24744;DHT22;12844;52.110;5.548;2023-03-31T11:06:54;20.70;53.00
24744;DHT22;12844;52.110;5.548;2023-03-31T11:09:34;20.60;53.20
24744;DHT22;12844;52.110;5.548;2023-03-31T11:12:23;20.50;53.30
24744;DHT22;12844;52.110;5.548;2023-03-31T11:20:56;20.50;53.40
24744;DHT22;12844;52.110;5.548;2023-03-31T11:23:48;20.50;53.40
24744;DHT22;12844;52.110;5.548;2023-03-31T11:26:43;20.50;53.50
24744;DHT22;12844;52.110;5.548;2023-03-31T11:42:51;20.70;53.20
24744;DHT22;12844;52.110;5.548;2023-03-31T11:45:24;20.70;53.20
24744;DHT22;12844;52.110;5.548;2023-03-31T11:47:54;20.60;53.20
24744;DHT22;12844;52.110;5.548;2023-03-31T11:50:25;20.60;53.20
24744;DHT22;12844;52.110;5.548;2023-03-31T11:53:02;20.60;53.20
24744;DHT22;12844;52.110;5.548;2023-03-31T11:55:30;20.60;53.20
24744;DHT22;12844;52.110;5.548;2023-03-31T11:58:03;20.60;53.20
24744;DHT22;12844;52.110;5.548;2023-03-31T12:00:47;20.60;53.20
24744;DHT22;12844;52.110;5.548;2023-03-31T12:03:40;20.60;53.20
24744;DHT22;12844;52.110;5.548;2023-03-31T12:06:13;20.60;53.30
24744;DHT22;12844;52.110;5.548;2023-03-31T12:11:38;20.60;53.40
24744;DHT22;12844;52.110;5.548;2023-03-31T12:16:46;20.50;53.40
24744;DHT22;12844;52.110;5.548;2023-03-31T12:25:00;20.50;53.50
24744;DHT22;12844;52.110;5.548;2023-03-31T12:27:37;20.50;53.50
24744;DHT22;12844;52.110;5.548;2023-03-31T12:30:19;20.50;53.50
24744;DHT22;12844;52.110;5.548;2023-03-31T12:32:55;20.50;53.50
24744;DHT22;12844;52.110;5.548;2023-03-31T12:35:31;20.50;53.50
24744;DHT22;12844;52.110;5.548;2023-03-31T12:43:29;20.50;53.50
24744;DHT22;12844;52.110;5.548;2023-03-31T12:46:07;20.50;53.50
24744;DHT22;12844;52.110;5.548;2023-03-31T12:49:15;20.50;53.50
24744;DHT22;12844;52.110;5.548;2023-03-31T12:57:16;20.50;53.50
24744;DHT22;12844;52.110;5.548;2023-03-31T12:59:45;20.50;53.50
24744;DHT22;12844;52.110;5.548;2023-03-31T13:04:40;20.50;53.50
24744;DHT22;12844;52.110;5.548;2023-03-31T13:07:33;20.50;53.60
24744;DHT22;12844;52.110;5.548;2023-03-31T13:12:38;20.60;53.50
24744;DHT22;12844;52.110;5.548;2023-03-31T13:15:04;20.60;53.40
24744;DHT22;12844;52.110;5.548;2023-03-31T13:17:37;20.60;53.40
24744;DHT22;12844;52.110;5.548;2023-03-31T13:22:59;20.70;53.40
24744;DHT22;12844;52.110;5.548;2023-03-31T13:27:55;20.70;53.40
24744;DHT22;12844;52.110;5.548;2023-03-31T13:33:31;20.70;53.40
24744;DHT22;12844;52.110;5.548;2023-03-31T13:36:29;20.60;53.40
24744;DHT22;12844;52.110;5.548;2023-03-31T13:39:33;20.70;53.40
24744;DHT22;12844;52.110;5.548;2023-03-31T13:50:30;20.60;53.50
24744;DHT22;12844;52.110;5.548;2023-03-31T13:53:30;20.60;53.50
24744;DHT22;12844;52.110;5.548;2023-03-31T14:04:55;20.60;53.50
24744;DHT22;12844;52.110;5.548;2023-03-31T14:07:44;20.60;53.40
24744;DHT22;12844;52.110;5.548;2023-03-31T14:10:32;20.60;53.50
24744;DHT22;12844;52.110;5.548;2023-03-31T14:13:16;20.50;53.50
24744;DHT22;12844;52.110;5.548;2023-03-31T14:15:54;20.60;53.50
24744;DHT22;12844;52.110;5.548;2023-03-31T14:18:24;20.60;53.50
24744;DHT22;12844;52.110;5.548;2023-03-31T14:24:03;20.50;53.50
24744;DHT22;12844;52.110;5.548;2023-03-31T14:37:42;20.50;53.50
24744;DHT22;12844;52.110;5.548;2023-03-31T14:40:13;20.50;53.50
24744;DHT22;12844;52.110;5.548;2023-03-31T14:42:41;20.50;53.40
24744;DHT22;12844;52.110;5.548;2023-03-31T14:45:25;20.50;53.40
24744;DHT22;12844;52.110;5.548;2023-03-31T14:47:57;20.50;53.50
24744;DHT22;12844;52.110;5.548;2023-03-31T14:50:33;20.50;53.40
24744;DHT22;12844;52.110;5.548;2023-03-31T14:52:59;20.50;53.40
24744;DHT22;12844;52.110;5.548;2023-03-31T14:55:29;20.50;53.40
24744;DHT22;12844;52.110;5.548;2023-03-31T14:57:58;20.50;53.40
24744;DHT22;12844;52.110;5.548;2023-03-31T15:00:31;20.50;53.30
24744;DHT22;12844;52.110;5.548;2023-03-31T15:02:58;20.50;53.40
24744;DHT22;12844;52.110;5.548;2023-03-31T15:07:57;20.50;53.40
24744;DHT22;12844;52.110;5.548;2023-03-31T15:10:23;20.50;53.40
24744;DHT22;12844;52.110;5.548;2023-03-31T15:12:49;20.60;53.30
24744;DHT22;12844;52.110;5.548;2023-03-31T15:15:17;20.60;53.20
24744;DHT22;12844;52.110;5.548;2023-03-31T15:17:46;20.60;53.40
24744;DHT22;12844;52.110;5.548;2023-03-31T15:20:39;20.60;53.20
24744;DHT22;12844;52.110;5.548;2023-03-31T15:23:22;20.70;53.00
24744;DHT22;12844;52.110;5.548;2023-03-31T15:25:57;20.70;53.10
24744;DHT22;12844;52.110;5.548;2023-03-31T15:28:25;20.70;53.20
24744;DHT22;12844;52.110;5.548;2023-03-31T15:30:51;20.70;53.20
24744;DHT22;12844;52.110;5.548;2023-03-31T15:33:21;20.70;53.20
24744;DHT22;12844;52.110;5.548;2023-03-31T15:35:47;20.70;53.10
24744;DHT22;12844;52.110;5.548;2023-03-31T15:38:14;20.70;53.20
24744;DHT22;12844;52.110;5.548;2023-03-31T15:40:42;20.70;53.20
24744;DHT22;12844;52.110;5.548;2023-03-31T15:43:26;20.70;53.30
24744;DHT22;12844;52.110;5.548;2023-03-31T15:45:59;20.60;53.30
24744;DHT22;12844;52.110;5.548;2023-03-31T15:48:34;20.70;53.30
24744;DHT22;12844;52.110;5.548;2023-03-31T15:51:05;20.70;53.30
24744;DHT22;12844;52.110;5.548;2023-03-31T15:53:36;20.70;53.30
24744;DHT22;12844;52.110;5.548;2023-03-31T15:56:02;20.70;53.30
24744;DHT22;12844;52.110;5.548;2023-03-31T15:58:58;20.70;53.30
24744;DHT22;12844;52.110;5.548;2023-03-31T16:01:28;20.70;53.40
24744;DHT22;12844;52.110;5.548;2023-03-31T16:03:57;20.70;53.40
24744;DHT22;12844;52.110;5.548;2023-03-31T16:06:34;20.60;53.40
24744;DHT22;12844;52.110;5.548;2023-03-31T16:09:08;20.60;53.40
24744;DHT22;12844;52.110;5.548;2023-03-31T16:11:47;20.60;53.50
24744;DHT22;12844;52.110;5.548;2023-03-31T16:14:19;20.60;53.50
24744;DHT22;12844;52.110;5.548;2023-03-31T16:16:53;20.60;53.50
24744;DHT22;12844;52.110;5.548;2023-03-31T16:19:24;20.60;53.50
24744;DHT22;12844;52.110;5.548;2023-03-31T16:21:53;20.60;53.50
24744;DHT22;12844;52.110;5.548;2023-03-31T16:24:28;20.60;53.50
24744;DHT22;12844;52.110;5.548;2023-03-31T16:27:03;20.60;53.50
24744;DHT22;12844;52.110;5.548;2023-03-31T16:29:35;20.60;53.50
24744;DHT22;12844;52.110;5.548;2023-03-31T16:32:17;20.60;53.60
24744;DHT22;12844;52.110;5.548;2023-03-31T16:34:53;20.60;53.50
24744;DHT22;12844;52.110;5.548;2023-03-31T16:37:19;20.60;53.60
24744;DHT22;12844;52.110;5.548;2023-03-31T16:39:45;20.60;53.60
24744;DHT22;12844;52.110;5.548;2023-03-31T16:42:11;20.60;53.60
24744;DHT22;12844;52.110;5.548;2023-03-31T16:44:36;20.60;53.60
24744;DHT22;12844;52.110;5.548;2023-03-31T16:47:02;20.60;53.50
24744;DHT22;12844;52.110;5.548;2023-03-31T16:49:27;20.60;53.50
24744;DHT22;12844;52.110;5.548;2023-03-31T16:51:53;20.60;53.50
24744;DHT22;12844;52.110;5.548;2023-03-31T16:54:18;20.50;53.70
24744;DHT22;12844;52.110;5.548;2023-03-31T16:56:44;20.40;53.70
24744;DHT22;12844;52.110;5.548;2023-03-31T16:59:09;20.40;53.80
24744;DHT22;12844;52.110;5.548;2023-03-31T17:01:35;20.40;53.80
24744;DHT22;12844;52.110;5.548;2023-03-31T17:04:00;20.40;53.80
24744;DHT22;12844;52.110;5.548;2023-03-31T17:06:26;20.40;53.80
24744;DHT22;12844;52.110;5.548;2023-03-31T17:08:52;20.40;53.80
24744;DHT22;12844;52.110;5.548;2023-03-31T17:11:18;20.40;53.90
24744;DHT22;12844;52.110;5.548;2023-03-31T17:13:43;20.40;53.90
24744;DHT22;12844;52.110;5.548;2023-03-31T17:16:10;20.50;54.60
24744;DHT22;12844;52.110;5.548;2023-03-31T17:18:36;20.50;54.00
24744;DHT22;12844;52.110;5.548;2023-03-31T17:21:06;20.50;54.00
24744;DHT22;12844;52.110;5.548;2023-03-31T17:23:33;20.50;53.90
24744;DHT22;12844;52.110;5.548;2023-03-31T17:25:59;20.50;54.00
24744;DHT22;12844;52.110;5.548;2023-03-31T17:28:24;20.50;54.00
24744;DHT22;12844;52.110;5.548;2023-03-31T17:30:50;20.50;54.10
24744;DHT22;12844;52.110;5.548;2023-03-31T17:33:16;20.50;54.00
24744;DHT22;12844;52.110;5.548;2023-03-31T17:35:42;20.50;54.00
24744;DHT22;12844;52.110;5.548;2023-03-31T17:38:09;20.50;54.00
24744;DHT22;12844;52.110;5.548;2023-03-31T17:40:37;20.50;53.90
24744;DHT22;12844;52.110;5.548;2023-03-31T17:43:03;20.50;53.90
24744;DHT22;12844;52.110;5.548;2023-03-31T17:45:28;20.50;54.00
24744;DHT22;12844;52.110;5.548;2023-03-31T17:47:55;20.50;54.00
24744;DHT22;12844;52.110;5.548;2023-03-31T17:50:21;20.50;54.10
24744;DHT22;12844;52.110;5.548;2023-03-31T17:52:46;20.50;54.10
24744;DHT22;12844;52.110;5.548;2023-03-31T17:55:12;20.50;54.10
24744;DHT22;12844;52.110;5.548;2023-03-31T17:57:39;20.50;54.00
24744;DHT22;12844;52.110;5.548;2023-03-31T18:00:06;20.50;53.90
24744;DHT22;12844;52.110;5.548;2023-03-31T18:02:38;20.50;54.00
24744;DHT22;12844;52.110;5.548;2023-03-31T18:05:05;20.50;54.00
24744;DHT22;12844;52.110;5.548;2023-03-31T18:07:31;20.50;54.00
24744;DHT22;12844;52.110;5.548;2023-03-31T18:09:57;20.50;53.90
24744;DHT22;12844;52.110;5.548;2023-03-31T18:12:23;20.50;54.00
24744;DHT22;12844;52.110;5.548;2023-03-31T18:14:49;20.50;53.90
24744;DHT22;12844;52.110;5.548;2023-03-31T18:17:16;20.50;54.00